createdAt,value
2023-03-21T00:01:59.844Z,21.30
2023-03-21T00:06:52.670Z,22.10
2023-03-21T00:11:45.768Z,21.50
2023-03-21T00:16:39.599Z,22.30
2023-03-21T00:26:46.924Z,23.30
2023-03-21T00:31:39.743Z,22.30
2023-03-21T00:36:32.923Z,20.40
2023-03-21T00:41:41.138Z,21.30
2023-03-21T00:46:45.596Z,21.80
2023-03-21T00:51:44.642Z,22.80
2023-03-21T00:56:38.341Z,23.60
2023-03-21T01:01:32.412Z,22.90
2023-03-21T01:06:27.449Z,22.10
2023-03-21T01:11:24.825Z,22.50
2023-03-21T01:16:17.805Z,24.00
2023-03-21T01:21:13.905Z,22.80
2023-03-21T01:26:11.589Z,23.00
2023-03-21T01:31:06.265Z,21.80
2023-03-21T01:36:10.282Z,23.00
2023-03-21T01:41:17.111Z,21.30
2023-03-21T01:46:51.402Z,21.30
2023-03-21T01:52:21.029Z,21.90
2023-03-21T01:57:40.983Z,19.60
2023-03-21T02:02:38.089Z,20.60
2023-03-21T02:07:44.063Z,20.20
2023-03-21T02:12:41.184Z,19.40
2023-03-21T02:17:37.431Z,20.80
2023-03-21T02:22:49.581Z,20.70
2023-03-21T02:28:08.452Z,21.00
2023-03-21T02:33:33.226Z,19.90
2023-03-21T02:38:33.221Z,21.30
2023-03-21T02:43:52.053Z,20.10
2023-03-21T02:48:58.095Z,19.80
2023-03-21T02:54:23.710Z,21.30
2023-03-21T02:59:11.856Z,21.50
2023-03-21T03:04:05.426Z,19.10
2023-03-21T03:09:25.577Z,19.50
2023-03-21T03:15:00.329Z,18.90
2023-03-21T03:20:18.866Z,20.50
2023-03-21T03:25:29.818Z,20.20
2023-03-21T03:30:42.251Z,20.60
2023-03-21T03:40:49.751Z,19.00
2023-03-21T03:46:13.207Z,20.60
2023-03-21T03:51:18.486Z,18.50
2023-03-21T03:56:31.008Z,18.30
2023-03-21T04:01:24.390Z,18.30
2023-03-21T04:06:18.217Z,18.50
2023-03-21T04:11:14.396Z,19.10
2023-03-21T04:16:13.168Z,18.20
2023-03-21T04:21:12.962Z,19.20
2023-03-21T04:26:07.298Z,20.60
2023-03-21T04:31:08.889Z,19.00
2023-03-21T04:36:26.543Z,19.00
2023-03-21T04:41:22.228Z,18.10
2023-03-21T04:46:15.925Z,18.60
2023-03-21T04:51:08.968Z,19.40
2023-03-21T04:56:02.037Z,17.90
2023-03-21T05:00:55.180Z,17.40
2023-03-21T05:05:48.890Z,17.90
2023-03-21T05:10:42.257Z,17.30
2023-03-21T05:15:35.484Z,16.80
2023-03-21T05:20:28.425Z,17.20
2023-03-21T05:25:34.189Z,17.50
2023-03-21T05:30:34.982Z,17.80
2023-03-21T05:35:28.861Z,16.90
2023-03-21T05:40:23.908Z,18.90
2023-03-21T05:45:17.317Z,17.90
2023-03-21T05:50:11.572Z,16.50
2023-03-21T05:55:07.126Z,17.20
2023-03-21T06:00:00.164Z,16.40
2023-03-21T06:04:53.492Z,16.80
2023-03-21T06:09:47.337Z,15.80
2023-03-21T06:14:40.249Z,16.10
2023-03-21T06:20:01.393Z,15.60
2023-03-21T06:24:57.500Z,15.80
2023-03-21T06:29:50.493Z,14.30
2023-03-21T06:34:44.129Z,12.50
2023-03-21T06:39:40.339Z,13.60
2023-03-21T06:44:34.443Z,12.40
2023-03-21T06:49:31.603Z,11.50
2023-03-21T06:54:27.716Z,11.80
2023-03-21T06:59:26.776Z,10.10
2023-03-21T07:04:32.410Z,10.80
2023-03-21T07:09:28.186Z,10.20
2023-03-21T07:14:23.996Z,9.80
2023-03-21T07:19:16.950Z,10.40
2023-03-21T07:24:09.994Z,11.10
2023-03-21T07:29:02.805Z,10.60
2023-03-21T07:33:55.739Z,10.00
2023-03-21T07:38:48.845Z,11.00
2023-03-21T07:43:46.325Z,12.20
2023-03-21T07:48:39.250Z,12.20
2023-03-21T07:53:32.448Z,11.70
2023-03-21T07:58:27.374Z,11.10
2023-03-21T08:03:21.401Z,10.20
2023-03-21T08:08:14.353Z,9.50
2023-03-21T08:13:07.167Z,11.00
2023-03-21T08:18:01.349Z,10.40
2023-03-21T08:22:54.147Z,10.60
2023-03-21T08:27:48.361Z,10.10
2023-03-21T08:32:42.915Z,11.00
2023-03-21T08:37:36.070Z,9.20
2023-03-21T08:42:28.918Z,11.60
2023-03-21T08:47:22.331Z,11.70
2023-03-21T08:52:15.162Z,11.00
2023-03-21T08:57:08.685Z,11.40
2023-03-21T09:02:01.567Z,10.30
2023-03-21T09:06:56.388Z,9.30
2023-03-21T09:11:50.536Z,11.50
2023-03-21T09:16:45.001Z,10.00
2023-03-21T09:21:38.354Z,8.20
2023-03-21T09:26:31.268Z,8.70
2023-03-21T09:31:25.052Z,8.30
2023-03-21T09:36:19.327Z,8.00
2023-03-21T09:41:33.831Z,7.70
2023-03-21T09:46:41.114Z,6.50
2023-03-21T09:51:38.309Z,6.50
2023-03-21T09:56:31.422Z,6.90
2023-03-21T10:01:30.191Z,5.70
2023-03-21T10:06:28.897Z,6.50
2023-03-21T10:11:28.582Z,7.40
2023-03-21T10:16:30.518Z,6.80
2023-03-21T10:21:56.495Z,6.60
2023-03-21T10:26:39.701Z,6.20
2023-03-21T10:31:33.216Z,6.70
2023-03-21T10:36:30.762Z,5.90
2023-03-21T10:41:23.662Z,6.50
2023-03-21T10:46:24.231Z,7.20
2023-03-21T10:51:22.160Z,6.70
2023-03-21T10:56:15.015Z,6.20
2023-03-21T11:01:15.195Z,6.80
2023-03-21T11:06:13.697Z,3.40
2023-03-21T11:11:10.144Z,2.80
2023-03-21T11:16:09.317Z,3.50
2023-03-21T11:21:08.227Z,3.40
2023-03-21T11:26:03.814Z,3.60
2023-03-21T11:31:02.793Z,3.10
2023-03-21T11:36:26.412Z,3.20
2023-03-21T11:41:35.733Z,3.30
2023-03-21T11:46:33.904Z,4.20
2023-03-21T11:51:38.521Z,3.50
2023-03-21T11:56:39.309Z,2.70
2023-03-21T12:02:06.644Z,3.90
2023-03-21T12:07:18.435Z,3.70
2023-03-21T12:12:39.254Z,3.60
2023-03-21T12:18:10.960Z,4.70
2023-03-21T12:23:09.712Z,5.50
2023-03-21T12:28:32.396Z,4.70
2023-03-21T12:33:26.101Z,5.60
2023-03-21T12:38:28.789Z,4.70
2023-03-21T12:43:51.530Z,4.70
2023-03-21T12:48:47.740Z,4.70
2023-03-21T12:54:00.759Z,4.40
2023-03-21T12:59:05.995Z,6.00
2023-03-21T13:04:37.936Z,4.90
2023-03-21T13:09:40.138Z,4.50
2023-03-21T13:14:40.413Z,6.00
2023-03-21T13:19:48.721Z,4.20
2023-03-21T13:24:49.383Z,4.90
2023-03-21T13:29:42.162Z,4.60
2023-03-21T13:34:35.308Z,4.60
2023-03-21T13:39:31.234Z,5.40
2023-03-21T13:44:37.435Z,4.70
2023-03-21T13:49:33.587Z,4.40
2023-03-21T13:54:48.322Z,4.70
2023-03-21T13:59:46.208Z,4.40
2023-03-21T14:04:42.533Z,4.40
2023-03-21T14:09:50.545Z,3.60
2023-03-21T14:14:48.647Z,3.40
2023-03-21T14:19:41.466Z,3.80
2023-03-21T14:24:34.422Z,3.00
2023-03-21T14:29:32.912Z,2.10
2023-03-21T14:34:28.488Z,3.00
2023-03-21T14:39:28.856Z,4.10
2023-03-21T14:44:30.264Z,6.40
2023-03-21T14:49:30.445Z,3.10
2023-03-21T14:54:24.936Z,3.00
2023-03-21T14:59:22.662Z,4.80
2023-03-21T15:04:17.878Z,3.20
2023-03-21T15:09:17.254Z,3.10
2023-03-21T15:14:14.958Z,3.30
2023-03-21T15:19:11.813Z,3.30
2023-03-21T15:24:32.286Z,3.30
2023-03-21T15:29:27.414Z,3.20
2023-03-21T15:34:27.607Z,3.20
2023-03-21T15:39:21.901Z,3.50
2023-03-21T15:44:17.779Z,3.20
2023-03-21T15:49:14.971Z,2.90
2023-03-21T15:54:15.263Z,3.20
2023-03-21T15:59:14.696Z,3.40
2023-03-21T16:04:13.463Z,2.70
2023-03-21T16:09:14.436Z,3.00
2023-03-21T16:14:07.287Z,4.00
2023-03-21T16:19:02.055Z,3.70
2023-03-21T16:23:56.265Z,5.20
2023-03-21T16:28:49.949Z,3.70
2023-03-21T16:33:42.971Z,3.20
2023-03-21T16:38:35.844Z,3.50
2023-03-21T16:43:28.639Z,3.40
2023-03-21T16:48:21.549Z,4.30
2023-03-21T16:53:14.402Z,4.10
2023-03-21T16:58:07.625Z,4.50
2023-03-21T17:03:14.345Z,5.00
2023-03-21T17:08:07.401Z,5.20
2023-03-21T17:13:01.087Z,5.00
2023-03-21T17:17:55.873Z,4.60
2023-03-21T17:22:50.094Z,4.90
2023-03-21T17:27:44.035Z,6.20
2023-03-21T17:32:37.022Z,6.30
2023-03-21T17:37:29.808Z,7.30
2023-03-21T17:42:22.612Z,6.60
2023-03-21T17:47:16.466Z,8.40
2023-03-21T17:52:09.299Z,6.10
2023-03-21T17:57:02.124Z,7.50
2023-03-21T18:01:55.072Z,4.90
2023-03-21T18:06:47.992Z,5.20
2023-03-21T18:11:41.489Z,5.70
2023-03-21T18:16:34.606Z,4.70
2023-03-21T18:21:32.207Z,4.80
2023-03-21T18:26:26.023Z,5.40
2023-03-21T18:31:21.409Z,5.50
2023-03-21T18:36:24.838Z,5.90
2023-03-21T18:41:19.911Z,5.10
2023-03-21T18:46:13.446Z,6.40
2023-03-21T18:51:06.351Z,8.50
2023-03-21T18:55:59.202Z,9.70
2023-03-21T19:00:53.822Z,11.90
2023-03-21T19:05:47.204Z,10.80
2023-03-21T19:10:40.246Z,15.70
2023-03-21T19:15:33.306Z,14.50
2023-03-21T19:20:26.230Z,13.30
2023-03-21T19:25:19.442Z,8.80
2023-03-21T19:30:15.627Z,6.60
2023-03-21T19:35:09.418Z,4.80
2023-03-21T19:40:02.195Z,3.20
2023-03-21T19:44:55.007Z,3.70
2023-03-21T19:50:37.306Z,3.70
2023-03-21T19:55:00.762Z,4.20
2023-03-21T19:59:55.026Z,7.80
2023-03-21T20:04:48.011Z,6.60
2023-03-21T20:09:51.943Z,8.60
2023-03-21T20:14:48.502Z,8.30
2023-03-21T20:19:42.076Z,9.10
2023-03-21T20:24:36.412Z,7.00
2023-03-21T20:34:44.473Z,10.10
2023-03-21T20:39:37.941Z,7.80
2023-03-21T20:49:44.326Z,11.90
2023-03-21T20:54:37.482Z,11.10
2023-03-21T20:59:30.304Z,11.00
2023-03-21T21:04:41.200Z,12.70
2023-03-21T21:09:36.226Z,13.80
2023-03-21T21:14:29.821Z,12.90
2023-03-21T21:19:23.103Z,13.60
2023-03-21T21:24:16.017Z,13.10
2023-03-21T21:29:08.884Z,12.50
2023-03-21T21:34:03.243Z,15.40
2023-03-21T21:38:56.463Z,13.80
2023-03-21T21:43:49.517Z,15.70
2023-03-21T21:48:43.132Z,17.10
2023-03-21T21:53:36.727Z,18.90
2023-03-21T21:58:33.860Z,20.50
2023-03-21T22:03:26.878Z,22.40
2023-03-21T22:08:20.887Z,22.30
2023-03-21T22:13:16.829Z,22.30
2023-03-21T22:18:11.446Z,23.70
2023-03-21T22:23:04.242Z,25.80
2023-03-21T22:27:57.840Z,22.30
2023-03-21T22:33:06.172Z,24.80
2023-03-21T22:37:59.299Z,26.00
2023-03-21T22:42:52.196Z,26.20
2023-03-21T22:47:45.448Z,23.30
2023-03-21T22:52:38.271Z,26.60
2023-03-21T22:57:31.217Z,25.90
2023-03-21T23:02:24.083Z,29.30
2023-03-21T23:07:17.025Z,28.30
2023-03-21T23:12:09.916Z,28.50
2023-03-21T23:17:02.858Z,28.20
2023-03-21T23:21:56.871Z,28.60
2023-03-21T23:26:49.709Z,30.60
2023-03-21T23:31:42.515Z,28.90
2023-03-21T23:36:35.454Z,28.50
2023-03-21T23:41:28.394Z,27.70
2023-03-21T23:46:21.819Z,32.00
2023-03-21T23:51:17.455Z,29.10
2023-03-21T23:56:19.210Z,30.20
